createdAt,value
2023-02-13T00:02:28.732Z,4.10
2023-02-13T00:04:56.462Z,3.70
2023-02-13T00:07:24.012Z,4.25
2023-02-13T00:13:12.243Z,4.32
2023-02-13T00:15:40.010Z,3.80
2023-02-13T00:18:07.948Z,4.10
2023-02-13T00:20:35.922Z,4.05
2023-02-13T00:23:06.044Z,4.55
2023-02-13T00:25:33.819Z,3.78
2023-02-13T00:28:01.604Z,3.90
2023-02-13T00:30:29.665Z,4.30
2023-02-13T00:32:57.488Z,4.45
2023-02-13T00:35:25.746Z,3.75
2023-02-13T00:37:56.170Z,4.28
2023-02-13T00:40:25.991Z,4.07
2023-02-13T00:42:53.871Z,3.30
2023-02-13T00:45:21.652Z,4.03
2023-02-13T00:47:49.501Z,4.28
2023-02-13T00:50:17.352Z,4.90
2023-02-13T00:52:44.943Z,3.95
2023-02-13T00:55:13.599Z,4.60
2023-02-13T00:57:41.465Z,4.15
2023-02-13T01:00:09.628Z,4.45
2023-02-13T01:02:37.185Z,4.00
2023-02-13T01:05:05.016Z,4.40
2023-02-13T01:07:32.690Z,3.58
2023-02-13T01:10:00.416Z,3.58
2023-02-13T01:12:28.153Z,3.92
2023-02-13T01:14:56.274Z,3.70
2023-02-13T01:17:24.136Z,3.60
2023-02-13T01:19:52.022Z,3.97
2023-02-13T01:22:19.800Z,3.80
2023-02-13T01:24:49.781Z,3.47
2023-02-13T01:27:18.096Z,3.60
2023-02-13T01:29:45.849Z,3.40
2023-02-13T01:32:13.664Z,3.70
2023-02-13T01:34:44.392Z,3.70
2023-02-13T01:37:12.421Z,3.50
2023-02-13T01:39:40.217Z,3.80
2023-02-13T01:42:17.103Z,3.78
2023-02-13T01:44:57.962Z,3.97
2023-02-13T01:47:50.681Z,3.83
2023-02-13T01:50:25.864Z,3.60
2023-02-13T01:53:01.507Z,3.53
2023-02-13T01:55:32.724Z,3.85
2023-02-13T01:58:09.653Z,3.67
2023-02-13T02:00:39.349Z,3.58
2023-02-13T02:03:48.954Z,3.33
2023-02-13T02:06:29.620Z,3.40
2023-02-13T02:09:03.368Z,3.20
2023-02-13T02:11:49.094Z,2.88
2023-02-13T02:14:16.755Z,4.20
2023-02-13T02:16:45.076Z,3.63
2023-02-13T02:19:24.863Z,3.35
2023-02-13T02:22:21.698Z,4.10
2023-02-13T02:25:08.394Z,4.13
2023-02-13T02:28:07.944Z,4.82
2023-02-13T02:31:05.056Z,3.60
2023-02-13T02:34:06.233Z,3.20
2023-02-13T02:36:47.989Z,3.53
2023-02-13T02:39:21.726Z,3.70
2023-02-13T02:42:06.754Z,3.92
2023-02-13T02:44:47.838Z,3.78
2023-02-13T02:47:55.769Z,3.65
2023-02-13T02:50:53.261Z,4.65
2023-02-13T02:53:44.240Z,4.45
2023-02-13T02:56:23.781Z,5.07
2023-02-13T02:59:26.635Z,4.95
2023-02-13T03:02:14.479Z,5.88
2023-02-13T03:05:07.445Z,5.63
2023-02-13T03:07:36.364Z,4.18
2023-02-13T03:10:30.627Z,3.97
2023-02-13T03:13:22.358Z,4.53
2023-02-13T04:04:00.882Z,5.40
2023-02-13T04:09:50.626Z,4.65
2023-02-13T04:52:15.565Z,5.95
2023-02-13T06:04:03.879Z,9.25
2023-02-13T06:12:41.965Z,10.07
2023-02-13T08:14:07.453Z,10.52
2023-02-13T08:23:15.096Z,11.60
2023-02-13T08:28:36.176Z,12.13
2023-02-13T08:31:12.017Z,10.63
2023-02-13T08:33:41.492Z,10.13
2023-02-13T08:36:12.639Z,11.48
2023-02-13T08:42:01.565Z,10.93
2023-02-13T08:48:08.599Z,9.95
2023-02-13T08:50:37.502Z,9.77
2023-02-13T08:53:30.518Z,11.45
2023-02-13T08:55:58.936Z,10.48
2023-02-13T08:58:27.701Z,9.40
2023-02-13T09:00:56.457Z,7.80
2023-02-13T09:03:24.457Z,8.35
2023-02-13T11:28:43.121Z,10.80
2023-02-13T11:44:37.454Z,7.28
2023-02-13T11:47:12.075Z,7.28
2023-02-13T11:49:53.255Z,7.32
2023-02-13T11:52:37.307Z,7.03
2023-02-13T11:55:31.525Z,7.80
2023-02-13T11:58:59.342Z,6.60
2023-02-13T12:01:36.356Z,6.43
2023-02-13T12:04:27.881Z,6.35
2023-02-13T12:07:19.681Z,5.82
2023-02-13T12:10:03.070Z,6.00
2023-02-13T12:12:48.090Z,6.68
2023-02-13T12:15:42.902Z,6.90
2023-02-13T12:22:08.186Z,6.50
2023-02-13T12:25:02.214Z,5.53
2023-02-13T12:28:15.743Z,4.97
2023-02-13T12:31:10.986Z,7.13
2023-02-13T12:34:29.822Z,9.05
2023-02-13T12:37:43.075Z,8.25
2023-02-13T12:40:45.550Z,6.90
2023-02-13T12:43:55.534Z,9.73
2023-02-13T12:46:32.876Z,9.88
2023-02-13T12:49:20.389Z,11.75
2023-02-13T12:52:18.993Z,10.80
2023-02-13T12:55:22.069Z,12.15
2023-02-13T12:58:00.840Z,11.20
2023-02-13T13:00:56.749Z,10.57
2023-02-13T13:03:54.552Z,8.15
2023-02-13T13:07:13.058Z,8.93
2023-02-13T13:09:58.010Z,7.70
2023-02-13T13:12:40.040Z,8.52
2023-02-13T13:15:46.217Z,8.32
2023-02-13T13:18:44.774Z,11.48
2023-02-13T13:21:40.188Z,12.32
2023-02-13T13:24:37.696Z,12.23
2023-02-13T13:27:32.673Z,11.65
2023-02-13T13:30:36.312Z,11.68
2023-02-13T13:33:16.888Z,11.95
2023-02-13T13:36:12.841Z,11.23
2023-02-13T13:39:08.630Z,11.95
2023-02-13T13:41:55.290Z,12.80
2023-02-13T13:44:41.698Z,12.20
2023-02-13T13:47:36.987Z,11.77
2023-02-13T13:50:36.494Z,12.38
2023-02-13T13:53:41.685Z,12.15
2023-02-13T13:57:04.355Z,11.10
2023-02-13T13:59:51.905Z,11.52
2023-02-13T14:02:22.766Z,11.68
2023-02-13T14:05:30.273Z,12.48
2023-02-13T14:08:05.497Z,12.38
2023-02-13T14:10:54.136Z,12.85
2023-02-13T14:13:38.678Z,12.15
2023-02-13T14:16:12.842Z,11.85
2023-02-13T14:18:47.492Z,10.57
2023-02-13T14:21:23.988Z,10.70
2023-02-13T14:24:01.022Z,10.30
2023-02-13T14:38:30.708Z,11.18
2023-02-13T14:41:10.459Z,11.80
2023-02-13T14:43:53.324Z,12.18
2023-02-13T14:46:33.088Z,11.68
2023-02-13T14:49:06.642Z,11.55
2023-02-13T14:51:49.642Z,11.83
2023-02-13T14:54:18.326Z,12.43
2023-02-13T14:56:51.242Z,10.75
2023-02-13T14:59:24.801Z,12.05
2023-02-13T15:02:17.463Z,12.13
2023-02-13T15:04:49.205Z,12.40
2023-02-13T15:07:23.751Z,12.13
2023-02-13T15:10:32.184Z,12.30
2023-02-13T15:13:07.378Z,12.18
2023-02-13T15:15:38.572Z,12.63
2023-02-13T15:21:34.866Z,13.40
2023-02-13T15:24:05.309Z,13.48
2023-02-13T15:31:11.366Z,12.38
2023-02-13T15:33:50.543Z,12.93
2023-02-13T15:36:37.066Z,12.88
2023-02-13T15:39:55.228Z,12.82
2023-02-13T15:46:28.936Z,12.88
2023-02-13T15:49:35.307Z,12.65
2023-02-13T15:52:09.643Z,12.55
2023-02-13T15:55:02.269Z,12.65
2023-02-13T15:57:34.349Z,12.82
2023-02-13T16:00:11.450Z,13.95
2023-02-13T16:02:55.681Z,14.00
2023-02-13T16:06:02.525Z,14.32
2023-02-13T16:23:27.656Z,14.50
2023-02-13T16:26:03.940Z,15.77
2023-02-13T16:28:32.828Z,16.00
2023-02-13T16:31:05.022Z,18.15
2023-02-13T16:33:42.349Z,16.85
2023-02-13T16:36:16.571Z,15.65
2023-02-13T16:38:47.868Z,16.48
2023-02-13T16:41:25.911Z,16.17
2023-02-13T16:44:03.760Z,16.40
2023-02-13T16:46:42.034Z,14.95
2023-02-13T16:49:09.600Z,13.95
2023-02-13T16:51:41.747Z,15.48
2023-02-13T16:54:20.814Z,14.25
2023-02-13T16:57:00.136Z,14.80
2023-02-13T16:59:48.441Z,14.95
2023-02-13T17:02:31.884Z,16.02
2023-02-13T17:05:08.598Z,16.60
2023-02-13T17:07:41.741Z,16.55
2023-02-13T17:10:18.614Z,16.95
2023-02-13T17:12:47.072Z,17.40
2023-02-13T17:15:18.072Z,16.50
2023-02-13T17:17:46.445Z,16.73
2023-02-13T17:20:20.471Z,15.82
2023-02-13T17:22:50.752Z,15.35
2023-02-13T17:25:25.458Z,15.63
2023-02-13T17:27:55.891Z,16.98
2023-02-13T17:30:28.484Z,16.67
2023-02-13T17:33:11.299Z,15.77
2023-02-13T17:35:39.043Z,15.35
2023-02-13T17:38:18.913Z,16.33
2023-02-13T17:40:52.848Z,16.40
2023-02-13T17:43:42.046Z,15.80
2023-02-13T17:49:19.350Z,15.00
2023-02-13T17:54:36.194Z,16.25
2023-02-13T17:57:03.814Z,17.98
2023-02-13T17:59:34.209Z,21.52
2023-02-13T18:05:57.801Z,19.88
2023-02-13T18:14:53.901Z,18.20
2023-02-13T18:17:21.896Z,17.88
2023-02-13T18:19:52.791Z,19.10
2023-02-13T18:22:28.639Z,18.05
2023-02-13T18:24:56.439Z,18.13
2023-02-13T18:27:25.475Z,18.20
2023-02-13T18:29:55.240Z,17.98
2023-02-13T18:32:25.329Z,19.20
2023-02-13T18:34:53.220Z,17.55
2023-02-13T18:37:21.118Z,19.30
2023-02-13T18:39:51.107Z,17.58
2023-02-13T18:42:18.901Z,18.30
2023-02-13T18:44:46.507Z,18.33
2023-02-13T18:47:14.443Z,17.73
2023-02-13T18:49:42.911Z,17.70
2023-02-13T18:52:10.494Z,17.35
2023-02-13T18:54:38.818Z,19.48
2023-02-13T18:57:07.261Z,18.10
2023-02-13T18:59:34.940Z,17.77
2023-02-13T19:02:04.265Z,19.48
2023-02-13T19:04:32.073Z,17.80
2023-02-13T19:06:59.682Z,17.73
2023-02-13T19:09:27.426Z,18.15
2023-02-13T19:11:55.477Z,18.05
2023-02-13T19:14:26.930Z,17.80
2023-02-13T19:16:54.609Z,17.35
2023-02-13T19:19:22.184Z,18.75
2023-02-13T19:21:49.775Z,20.13
2023-02-13T19:24:18.097Z,20.02
2023-02-13T19:26:45.749Z,20.02
2023-02-13T19:29:13.579Z,20.17
2023-02-13T19:31:54.018Z,17.48
2023-02-13T19:34:21.833Z,19.75
2023-02-13T19:36:49.681Z,17.77
2023-02-13T19:39:19.223Z,18.83
2023-02-13T19:41:46.773Z,20.13
2023-02-13T19:44:14.736Z,17.20
2023-02-13T19:46:43.370Z,18.60
2023-02-13T19:49:11.490Z,18.40
2023-02-13T19:51:43.706Z,19.20
2023-02-13T19:54:20.956Z,21.38
2023-02-13T19:57:01.730Z,20.00
2023-02-13T19:59:29.497Z,21.23
2023-02-13T20:01:57.507Z,19.95
2023-02-13T20:04:25.238Z,19.33
2023-02-13T20:06:58.641Z,19.77
2023-02-13T20:09:26.437Z,19.38
2023-02-13T20:11:54.421Z,19.13
2023-02-13T20:14:22.112Z,18.65
2023-02-13T20:16:53.272Z,18.77
2023-02-13T20:19:21.646Z,20.55
2023-02-13T20:21:50.063Z,19.90
2023-02-13T20:24:17.607Z,22.02
2023-02-13T20:26:45.883Z,19.35
2023-02-13T20:29:13.465Z,20.73
2023-02-13T20:31:41.669Z,20.58
2023-02-13T20:34:09.710Z,20.63
2023-02-13T20:36:37.274Z,19.45
2023-02-13T20:39:07.617Z,19.15
2023-02-13T20:41:37.221Z,20.55
2023-02-13T20:44:10.479Z,21.70
2023-02-13T20:46:39.661Z,21.02
2023-02-13T20:49:08.297Z,22.25
2023-02-13T20:51:36.395Z,19.08
2023-02-13T20:54:05.425Z,19.85
2023-02-13T20:56:33.424Z,19.67
2023-02-13T20:59:02.683Z,21.17
2023-02-13T21:01:33.834Z,20.17
2023-02-13T21:04:01.985Z,20.08
2023-02-13T21:06:34.364Z,18.90
2023-02-13T21:09:03.599Z,18.45
2023-02-13T21:11:31.549Z,20.45
2023-02-13T21:14:11.484Z,20.13
2023-02-13T21:16:42.041Z,19.17
2023-02-13T21:19:17.736Z,17.90
2023-02-13T21:21:46.094Z,18.38
2023-02-13T21:24:17.767Z,19.55
2023-02-13T21:26:46.711Z,20.40
2023-02-13T21:29:14.537Z,19.73
2023-02-13T21:31:47.716Z,20.55
2023-02-13T21:34:17.494Z,19.95
2023-02-13T21:36:45.742Z,19.85
2023-02-13T21:39:14.386Z,18.02
2023-02-13T21:41:44.355Z,19.42
2023-02-13T21:44:16.089Z,19.02
2023-02-13T21:46:45.176Z,20.15
2023-02-13T21:49:17.017Z,18.80
2023-02-13T21:51:45.385Z,19.17
2023-02-13T21:54:13.626Z,18.85
2023-02-13T21:56:42.875Z,19.52
2023-02-13T21:59:17.157Z,19.23
2023-02-13T22:01:50.657Z,19.05
2023-02-13T22:04:18.690Z,18.37
2023-02-13T22:06:49.871Z,19.38
2023-02-13T22:09:19.769Z,18.27
2023-02-13T22:11:50.904Z,19.55
2023-02-13T22:14:19.641Z,19.50
2023-02-13T22:16:51.010Z,18.45
2023-02-13T22:19:20.488Z,19.13
2023-02-13T22:24:44.234Z,17.42
2023-02-13T22:27:12.074Z,17.88
2023-02-13T22:29:41.198Z,18.17
2023-02-13T22:32:09.090Z,19.05
2023-02-13T22:34:36.974Z,18.25
2023-02-13T22:37:04.459Z,17.10
2023-02-13T22:39:32.032Z,18.02
2023-02-13T22:41:59.579Z,18.90
2023-02-13T22:44:27.965Z,19.27
2023-02-13T22:46:55.866Z,18.58
2023-02-13T22:49:23.794Z,17.88
2023-02-13T22:51:51.583Z,17.85
2023-02-13T22:54:20.091Z,19.00
2023-02-13T22:56:47.657Z,18.27
2023-02-13T22:59:15.183Z,18.38
2023-02-13T23:01:42.819Z,18.95
2023-02-13T23:04:10.413Z,19.15
2023-02-13T23:06:38.198Z,19.58
2023-02-13T23:09:05.864Z,21.67
2023-02-13T23:11:51.989Z,25.70
2023-02-13T23:14:23.708Z,21.48
2023-02-13T23:17:09.643Z,21.20
2023-02-13T23:19:38.079Z,21.48
2023-02-13T23:22:05.687Z,21.98
2023-02-13T23:24:37.987Z,21.10
2023-02-13T23:27:05.631Z,20.88
2023-02-13T23:29:33.240Z,22.17
2023-02-13T23:32:01.040Z,26.20
2023-02-13T23:34:28.660Z,24.35
2023-02-13T23:36:56.288Z,21.85
2023-02-13T23:39:24.331Z,21.27
2023-02-13T23:41:51.924Z,21.83
2023-02-13T23:44:19.714Z,20.25
2023-02-13T23:46:47.624Z,21.45
2023-02-13T23:49:15.298Z,22.83
2023-02-13T23:51:42.851Z,20.98
2023-02-13T23:54:15.744Z,20.15
2023-02-13T23:56:44.128Z,18.75
2023-02-13T23:59:12.265Z,18.95
